sensor_id;sensor_type;location;lat;lon;timestamp;P1;durP1;ratioP1;P2;durP2;ratioP2
13868;SDS011;7004;48.206;16.402;2023-05-21T00:01:02;18.93;;;14.60;;
13868;SDS011;7004;48.206;16.402;2023-05-21T00:03:30;20.23;;;15.73;;
13868;SDS011;7004;48.206;16.402;2023-05-21T00:05:56;20.40;;;16.00;;
13868;SDS011;7004;48.206;16.402;2023-05-21T00:08:22;19.87;;;15.20;;
13868;SDS011;7004;48.206;16.402;2023-05-21T00:10:48;21.03;;;15.27;;
13868;SDS011;7004;48.206;16.402;2023-05-21T00:13:14;20.23;;;15.03;;
13868;SDS011;7004;48.206;16.402;2023-05-21T00:15:40;21.37;;;15.83;;
13868;SDS011;7004;48.206;16.402;2023-05-21T00:18:07;18.60;;;14.67;;
13868;SDS011;7004;48.206;16.402;2023-05-21T00:20:33;19.67;;;14.87;;
13868;SDS011;7004;48.206;16.402;2023-05-21T00:23:00;19.47;;;14.57;;
13868;SDS011;7004;48.206;16.402;2023-05-21T00:25:28;21.30;;;15.23;;
13868;SDS011;7004;48.206;16.402;2023-05-21T00:27:54;20.47;;;15.23;;
13868;SDS011;7004;48.206;16.402;2023-05-21T00:30:20;21.00;;;15.40;;
13868;SDS011;7004;48.206;16.402;2023-05-21T00:32:47;20.50;;;15.17;;
13868;SDS011;7004;48.206;16.402;2023-05-21T00:35:13;19.67;;;15.07;;
13868;SDS011;7004;48.206;16.402;2023-05-21T00:37:40;19.17;;;15.10;;
13868;SDS011;7004;48.206;16.402;2023-05-21T00:40:06;19.47;;;15.07;;
13868;SDS011;7004;48.206;16.402;2023-05-21T00:42:34;19.03;;;15.30;;
13868;SDS011;7004;48.206;16.402;2023-05-21T00:45:04;19.40;;;14.53;;
13868;SDS011;7004;48.206;16.402;2023-05-21T00:47:31;18.07;;;14.40;;
13868;SDS011;7004;48.206;16.402;2023-05-21T00:49:58;19.67;;;14.97;;
13868;SDS011;7004;48.206;16.402;2023-05-21T00:52:26;18.13;;;14.50;;
13868;SDS011;7004;48.206;16.402;2023-05-21T00:54:53;17.63;;;14.20;;
13868;SDS011;7004;48.206;16.402;2023-05-21T00:57:21;20.07;;;14.50;;
13868;SDS011;7004;48.206;16.402;2023-05-21T00:59:51;17.47;;;14.87;;
13868;SDS011;7004;48.206;16.402;2023-05-21T01:02:18;18.60;;;14.70;;
13868;SDS011;7004;48.206;16.402;2023-05-21T01:04:53;18.50;;;14.63;;
13868;SDS011;7004;48.206;16.402;2023-05-21T01:07:20;19.37;;;14.60;;
13868;SDS011;7004;48.206;16.402;2023-05-21T01:09:47;19.77;;;14.20;;
13868;SDS011;7004;48.206;16.402;2023-05-21T01:12:13;18.00;;;14.23;;
13868;SDS011;7004;48.206;16.402;2023-05-21T01:14:40;15.90;;;14.17;;
13868;SDS011;7004;48.206;16.402;2023-05-21T01:17:07;17.63;;;14.40;;
13868;SDS011;7004;48.206;16.402;2023-05-21T01:19:35;19.43;;;14.63;;
13868;SDS011;7004;48.206;16.402;2023-05-21T01:22:05;18.50;;;14.57;;
13868;SDS011;7004;48.206;16.402;2023-05-21T01:24:32;17.83;;;14.27;;
13868;SDS011;7004;48.206;16.402;2023-05-21T01:27:00;18.20;;;14.47;;
13868;SDS011;7004;48.206;16.402;2023-05-21T01:29:27;19.03;;;14.30;;
13868;SDS011;7004;48.206;16.402;2023-05-21T01:35:04;18.67;;;14.43;;
13868;SDS011;7004;48.206;16.402;2023-05-21T01:37:45;17.47;;;14.00;;
13868;SDS011;7004;48.206;16.402;2023-05-21T01:40:33;21.80;;;15.30;;
13868;SDS011;7004;48.206;16.402;2023-05-21T01:43:11;19.87;;;14.77;;
13868;SDS011;7004;48.206;16.402;2023-05-21T01:45:41;17.53;;;14.13;;
13868;SDS011;7004;48.206;16.402;2023-05-21T01:48:08;18.77;;;15.03;;
13868;SDS011;7004;48.206;16.402;2023-05-21T01:50:36;21.17;;;14.37;;
13868;SDS011;7004;48.206;16.402;2023-05-21T01:53:05;20.97;;;15.37;;
13868;SDS011;7004;48.206;16.402;2023-05-21T01:55:31;19.10;;;14.77;;
13868;SDS011;7004;48.206;16.402;2023-05-21T01:57:58;22.80;;;16.20;;
13868;SDS011;7004;48.206;16.402;2023-05-21T02:00:25;22.80;;;15.60;;
13868;SDS011;7004;48.206;16.402;2023-05-21T02:02:53;19.83;;;15.37;;
13868;SDS011;7004;48.206;16.402;2023-05-21T02:05:20;19.30;;;14.97;;
13868;SDS011;7004;48.206;16.402;2023-05-21T02:07:49;21.10;;;15.47;;
13868;SDS011;7004;48.206;16.402;2023-05-21T02:10:16;23.90;;;17.20;;
13868;SDS011;7004;48.206;16.402;2023-05-21T02:12:42;23.40;;;15.40;;
13868;SDS011;7004;48.206;16.402;2023-05-21T02:15:09;21.90;;;16.40;;
13868;SDS011;7004;48.206;16.402;2023-05-21T02:17:36;20.37;;;15.43;;
13868;SDS011;7004;48.206;16.402;2023-05-21T02:20:03;19.40;;;14.80;;
13868;SDS011;7004;48.206;16.402;2023-05-21T02:22:44;20.07;;;14.67;;
13868;SDS011;7004;48.206;16.402;2023-05-21T02:25:12;25.77;;;15.67;;
13868;SDS011;7004;48.206;16.402;2023-05-21T02:27:40;19.90;;;15.47;;
13868;SDS011;7004;48.206;16.402;2023-05-21T02:30:11;20.20;;;14.90;;
13868;SDS011;7004;48.206;16.402;2023-05-21T02:32:41;21.33;;;15.87;;
13868;SDS011;7004;48.206;16.402;2023-05-21T02:35:12;18.43;;;15.07;;
13868;SDS011;7004;48.206;16.402;2023-05-21T02:37:39;20.67;;;15.70;;
13868;SDS011;7004;48.206;16.402;2023-05-21T02:40:06;20.67;;;15.37;;
13868;SDS011;7004;48.206;16.402;2023-05-21T02:42:34;22.33;;;16.07;;
13868;SDS011;7004;48.206;16.402;2023-05-21T02:45:04;19.10;;;15.10;;
13868;SDS011;7004;48.206;16.402;2023-05-21T02:47:32;19.80;;;15.93;;
13868;SDS011;7004;48.206;16.402;2023-05-21T02:49:58;18.93;;;15.27;;
13868;SDS011;7004;48.206;16.402;2023-05-21T02:52:26;20.60;;;15.30;;
13868;SDS011;7004;48.206;16.402;2023-05-21T02:54:52;20.43;;;15.13;;
13868;SDS011;7004;48.206;16.402;2023-05-21T02:57:18;21.17;;;15.93;;
13868;SDS011;7004;48.206;16.402;2023-05-21T02:59:44;19.67;;;15.03;;
13868;SDS011;7004;48.206;16.402;2023-05-21T03:02:11;21.73;;;14.63;;
13868;SDS011;7004;48.206;16.402;2023-05-21T03:04:37;20.80;;;14.70;;
13868;SDS011;7004;48.206;16.402;2023-05-21T03:07:03;17.80;;;15.03;;
13868;SDS011;7004;48.206;16.402;2023-05-21T03:09:30;20.20;;;15.43;;
13868;SDS011;7004;48.206;16.402;2023-05-21T03:11:56;19.67;;;15.43;;
13868;SDS011;7004;48.206;16.402;2023-05-21T03:14:22;20.70;;;15.93;;
13868;SDS011;7004;48.206;16.402;2023-05-21T03:16:49;22.10;;;15.90;;
13868;SDS011;7004;48.206;16.402;2023-05-21T03:19:15;21.03;;;15.40;;
13868;SDS011;7004;48.206;16.402;2023-05-21T03:21:41;19.37;;;15.23;;
13868;SDS011;7004;48.206;16.402;2023-05-21T03:24:07;20.83;;;14.03;;
13868;SDS011;7004;48.206;16.402;2023-05-21T03:26:34;21.17;;;15.67;;
13868;SDS011;7004;48.206;16.402;2023-05-21T03:29:00;20.90;;;14.73;;
13868;SDS011;7004;48.206;16.402;2023-05-21T03:31:26;20.20;;;14.53;;
13868;SDS011;7004;48.206;16.402;2023-05-21T03:33:52;18.20;;;14.20;;
13868;SDS011;7004;48.206;16.402;2023-05-21T03:36:18;19.63;;;14.83;;
13868;SDS011;7004;48.206;16.402;2023-05-21T03:38:45;21.70;;;15.23;;
13868;SDS011;7004;48.206;16.402;2023-05-21T03:41:11;18.70;;;14.07;;
13868;SDS011;7004;48.206;16.402;2023-05-21T03:43:37;19.77;;;14.50;;
13868;SDS011;7004;48.206;16.402;2023-05-21T03:46:03;21.20;;;15.60;;
13868;SDS011;7004;48.206;16.402;2023-05-21T03:48:30;18.27;;;14.60;;
13868;SDS011;7004;48.206;16.402;2023-05-21T03:50:56;19.17;;;14.53;;
13868;SDS011;7004;48.206;16.402;2023-05-21T03:53:22;18.97;;;13.93;;
13868;SDS011;7004;48.206;16.402;2023-05-21T03:55:48;19.43;;;14.57;;
13868;SDS011;7004;48.206;16.402;2023-05-21T03:58:22;20.33;;;15.97;;
13868;SDS011;7004;48.206;16.402;2023-05-21T04:00:49;19.50;;;14.70;;
13868;SDS011;7004;48.206;16.402;2023-05-21T04:03:15;22.07;;;15.30;;
13868;SDS011;7004;48.206;16.402;2023-05-21T04:05:42;19.67;;;15.10;;
13868;SDS011;7004;48.206;16.402;2023-05-21T04:08:08;20.73;;;15.27;;
13868;SDS011;7004;48.206;16.402;2023-05-21T04:10:35;20.63;;;15.40;;
13868;SDS011;7004;48.206;16.402;2023-05-21T04:13:01;18.67;;;15.10;;
13868;SDS011;7004;48.206;16.402;2023-05-21T04:15:27;19.17;;;14.57;;
13868;SDS011;7004;48.206;16.402;2023-05-21T04:17:53;21.50;;;15.23;;
13868;SDS011;7004;48.206;16.402;2023-05-21T04:20:20;18.73;;;14.87;;
13868;SDS011;7004;48.206;16.402;2023-05-21T04:22:46;19.77;;;14.73;;
13868;SDS011;7004;48.206;16.402;2023-05-21T04:25:12;21.50;;;15.17;;
13868;SDS011;7004;48.206;16.402;2023-05-21T04:27:38;18.40;;;13.77;;
13868;SDS011;7004;48.206;16.402;2023-05-21T04:30:04;18.63;;;14.17;;
13868;SDS011;7004;48.206;16.402;2023-05-21T04:32:31;20.43;;;15.27;;
13868;SDS011;7004;48.206;16.402;2023-05-21T04:34:59;18.53;;;14.37;;
13868;SDS011;7004;48.206;16.402;2023-05-21T04:37:26;18.60;;;14.07;;
13868;SDS011;7004;48.206;16.402;2023-05-21T04:39:53;18.13;;;13.43;;
13868;SDS011;7004;48.206;16.402;2023-05-21T04:42:19;18.50;;;14.53;;
13868;SDS011;7004;48.206;16.402;2023-05-21T04:44:49;19.27;;;15.13;;
13868;SDS011;7004;48.206;16.402;2023-05-21T04:47:15;17.37;;;14.07;;
13868;SDS011;7004;48.206;16.402;2023-05-21T04:49:45;17.67;;;13.87;;
13868;SDS011;7004;48.206;16.402;2023-05-21T04:52:11;19.60;;;14.97;;
13868;SDS011;7004;48.206;16.402;2023-05-21T04:54:38;19.70;;;14.23;;
13868;SDS011;7004;48.206;16.402;2023-05-21T04:57:06;16.73;;;13.77;;
13868;SDS011;7004;48.206;16.402;2023-05-21T04:59:33;18.47;;;14.37;;
13868;SDS011;7004;48.206;16.402;2023-05-21T05:01:59;16.47;;;13.03;;
13868;SDS011;7004;48.206;16.402;2023-05-21T05:04:26;19.57;;;14.50;;
13868;SDS011;7004;48.206;16.402;2023-05-21T05:06:52;21.57;;;14.20;;
13868;SDS011;7004;48.206;16.402;2023-05-21T05:09:18;17.77;;;13.67;;
13868;SDS011;7004;48.206;16.402;2023-05-21T05:11:49;19.33;;;13.60;;
13868;SDS011;7004;48.206;16.402;2023-05-21T05:14:16;20.13;;;13.93;;
13868;SDS011;7004;48.206;16.402;2023-05-21T05:16:43;17.57;;;13.33;;
13868;SDS011;7004;48.206;16.402;2023-05-21T05:19:12;18.50;;;12.90;;
13868;SDS011;7004;48.206;16.402;2023-05-21T05:21:38;16.50;;;13.03;;
13868;SDS011;7004;48.206;16.402;2023-05-21T05:24:04;16.37;;;13.17;;
13868;SDS011;7004;48.206;16.402;2023-05-21T05:26:31;16.70;;;12.73;;
13868;SDS011;7004;48.206;16.402;2023-05-21T05:28:57;14.07;;;11.93;;
13868;SDS011;7004;48.206;16.402;2023-05-21T05:31:23;14.67;;;12.37;;
13868;SDS011;7004;48.206;16.402;2023-05-21T05:33:49;17.23;;;12.83;;
13868;SDS011;7004;48.206;16.402;2023-05-21T05:36:15;17.43;;;12.63;;
13868;SDS011;7004;48.206;16.402;2023-05-21T05:38:41;17.57;;;12.43;;
13868;SDS011;7004;48.206;16.402;2023-05-21T05:41:07;14.23;;;11.93;;
13868;SDS011;7004;48.206;16.402;2023-05-21T05:43:33;16.17;;;11.40;;
13868;SDS011;7004;48.206;16.402;2023-05-21T05:45:59;17.40;;;12.67;;
13868;SDS011;7004;48.206;16.402;2023-05-21T05:48:25;14.63;;;11.10;;
13868;SDS011;7004;48.206;16.402;2023-05-21T05:50:52;13.27;;;10.93;;
13868;SDS011;7004;48.206;16.402;2023-05-21T05:53:21;16.60;;;11.97;;
13868;SDS011;7004;48.206;16.402;2023-05-21T05:55:47;13.13;;;10.73;;
13868;SDS011;7004;48.206;16.402;2023-05-21T05:58:13;15.47;;;11.77;;
13868;SDS011;7004;48.206;16.402;2023-05-21T06:00:40;14.17;;;11.70;;
13868;SDS011;7004;48.206;16.402;2023-05-21T06:03:06;15.33;;;11.27;;
13868;SDS011;7004;48.206;16.402;2023-05-21T06:05:32;14.03;;;11.03;;
13868;SDS011;7004;48.206;16.402;2023-05-21T06:07:58;13.03;;;10.20;;
13868;SDS011;7004;48.206;16.402;2023-05-21T06:10:24;15.00;;;10.53;;
13868;SDS011;7004;48.206;16.402;2023-05-21T06:12:50;12.53;;;10.53;;
13868;SDS011;7004;48.206;16.402;2023-05-21T06:15:16;12.27;;;10.40;;
13868;SDS011;7004;48.206;16.402;2023-05-21T06:17:44;11.93;;;9.60;;
13868;SDS011;7004;48.206;16.402;2023-05-21T06:20:10;11.53;;;9.50;;
13868;SDS011;7004;48.206;16.402;2023-05-21T06:22:36;11.87;;;9.83;;
13868;SDS011;7004;48.206;16.402;2023-05-21T06:25:03;11.30;;;9.90;;
13868;SDS011;7004;48.206;16.402;2023-05-21T06:27:30;11.77;;;10.10;;
13868;SDS011;7004;48.206;16.402;2023-05-21T06:29:56;12.23;;;9.57;;
13868;SDS011;7004;48.206;16.402;2023-05-21T06:32:23;12.47;;;9.47;;
13868;SDS011;7004;48.206;16.402;2023-05-21T06:34:49;9.73;;;8.73;;
13868;SDS011;7004;48.206;16.402;2023-05-21T06:37:19;12.63;;;9.00;;
13868;SDS011;7004;48.206;16.402;2023-05-21T06:39:46;9.10;;;8.17;;
13868;SDS011;7004;48.206;16.402;2023-05-21T06:42:12;10.20;;;8.97;;
13868;SDS011;7004;48.206;16.402;2023-05-21T06:44:38;12.10;;;9.30;;
13868;SDS011;7004;48.206;16.402;2023-05-21T06:47:04;11.27;;;9.40;;
13868;SDS011;7004;48.206;16.402;2023-05-21T06:49:31;12.20;;;9.50;;
13868;SDS011;7004;48.206;16.402;2023-05-21T06:51:57;13.13;;;10.37;;
13868;SDS011;7004;48.206;16.402;2023-05-21T06:54:23;10.60;;;9.40;;
13868;SDS011;7004;48.206;16.402;2023-05-21T06:56:49;10.07;;;8.63;;
13868;SDS011;7004;48.206;16.402;2023-05-21T06:59:15;10.40;;;9.00;;
13868;SDS011;7004;48.206;16.402;2023-05-21T07:01:42;10.60;;;9.10;;
13868;SDS011;7004;48.206;16.402;2023-05-21T07:04:08;10.37;;;9.27;;
13868;SDS011;7004;48.206;16.402;2023-05-21T07:06:35;10.67;;;9.17;;
13868;SDS011;7004;48.206;16.402;2023-05-21T07:09:02;13.87;;;9.40;;
13868;SDS011;7004;48.206;16.402;2023-05-21T07:11:30;10.10;;;9.10;;
13868;SDS011;7004;48.206;16.402;2023-05-21T07:13:57;10.47;;;9.20;;
13868;SDS011;7004;48.206;16.402;2023-05-21T07:16:26;10.10;;;9.03;;
13868;SDS011;7004;48.206;16.402;2023-05-21T07:18:52;10.57;;;9.47;;
13868;SDS011;7004;48.206;16.402;2023-05-21T07:21:18;9.63;;;8.30;;
13868;SDS011;7004;48.206;16.402;2023-05-21T07:23:45;12.43;;;9.60;;
13868;SDS011;7004;48.206;16.402;2023-05-21T07:26:11;11.40;;;9.33;;
13868;SDS011;7004;48.206;16.402;2023-05-21T07:28:37;13.03;;;9.63;;
13868;SDS011;7004;48.206;16.402;2023-05-21T07:31:03;11.70;;;9.33;;
13868;SDS011;7004;48.206;16.402;2023-05-21T07:33:29;8.93;;;8.03;;
13868;SDS011;7004;48.206;16.402;2023-05-21T07:35:55;9.70;;;8.70;;
13868;SDS011;7004;48.206;16.402;2023-05-21T07:38:21;10.07;;;8.30;;
13868;SDS011;7004;48.206;16.402;2023-05-21T07:40:47;10.87;;;8.37;;
13868;SDS011;7004;48.206;16.402;2023-05-21T07:43:13;11.63;;;8.30;;
13868;SDS011;7004;48.206;16.402;2023-05-21T07:45:39;10.80;;;8.77;;
13868;SDS011;7004;48.206;16.402;2023-05-21T07:48:07;9.23;;;8.23;;
13868;SDS011;7004;48.206;16.402;2023-05-21T07:50:33;9.73;;;8.73;;
13868;SDS011;7004;48.206;16.402;2023-05-21T07:52:59;9.53;;;8.27;;
13868;SDS011;7004;48.206;16.402;2023-05-21T07:55:26;10.60;;;8.80;;
13868;SDS011;7004;48.206;16.402;2023-05-21T07:57:52;9.93;;;8.93;;
13868;SDS011;7004;48.206;16.402;2023-05-21T08:00:18;9.30;;;8.40;;
13868;SDS011;7004;48.206;16.402;2023-05-21T08:02:47;9.97;;;8.60;;
13868;SDS011;7004;48.206;16.402;2023-05-21T08:05:13;10.63;;;8.00;;
13868;SDS011;7004;48.206;16.402;2023-05-21T08:07:40;9.43;;;8.33;;
13868;SDS011;7004;48.206;16.402;2023-05-21T08:10:09;9.23;;;8.33;;
13868;SDS011;7004;48.206;16.402;2023-05-21T08:12:35;9.13;;;8.23;;
13868;SDS011;7004;48.206;16.402;2023-05-21T08:15:02;9.20;;;8.30;;
13868;SDS011;7004;48.206;16.402;2023-05-21T08:17:28;8.90;;;8.00;;
13868;SDS011;7004;48.206;16.402;2023-05-21T08:19:55;9.27;;;8.33;;
13868;SDS011;7004;48.206;16.402;2023-05-21T08:22:22;8.80;;;7.90;;
13868;SDS011;7004;48.206;16.402;2023-05-21T08:24:48;9.63;;;8.70;;
13868;SDS011;7004;48.206;16.402;2023-05-21T08:27:14;9.03;;;7.90;;
13868;SDS011;7004;48.206;16.402;2023-05-21T08:29:40;9.60;;;8.60;;
13868;SDS011;7004;48.206;16.402;2023-05-21T08:32:07;12.10;;;9.07;;
13868;SDS011;7004;48.206;16.402;2023-05-21T08:34:34;9.30;;;8.40;;
13868;SDS011;7004;48.206;16.402;2023-05-21T08:37:00;9.60;;;8.53;;
13868;SDS011;7004;48.206;16.402;2023-05-21T08:39:26;9.23;;;8.33;;
13868;SDS011;7004;48.206;16.402;2023-05-21T08:41:54;8.97;;;7.97;;
13868;SDS011;7004;48.206;16.402;2023-05-21T08:44:34;9.73;;;8.53;;
13868;SDS011;7004;48.206;16.402;2023-05-21T08:47:08;8.20;;;7.40;;
13868;SDS011;7004;48.206;16.402;2023-05-21T08:49:40;9.20;;;7.57;;
13868;SDS011;7004;48.206;16.402;2023-05-21T08:52:07;8.97;;;7.83;;
13868;SDS011;7004;48.206;16.402;2023-05-21T08:54:34;8.43;;;7.40;;
13868;SDS011;7004;48.206;16.402;2023-05-21T08:57:01;8.03;;;7.33;;
13868;SDS011;7004;48.206;16.402;2023-05-21T08:59:29;8.43;;;6.97;;
13868;SDS011;7004;48.206;16.402;2023-05-21T09:01:55;7.53;;;6.77;;
13868;SDS011;7004;48.206;16.402;2023-05-21T09:04:22;9.87;;;8.20;;
13868;SDS011;7004;48.206;16.402;2023-05-21T09:06:48;8.13;;;7.33;;
13868;SDS011;7004;48.206;16.402;2023-05-21T09:09:23;11.20;;;7.33;;
13868;SDS011;7004;48.206;16.402;2023-05-21T09:11:56;10.93;;;7.90;;
13868;SDS011;7004;48.206;16.402;2023-05-21T09:14:22;11.00;;;8.60;;
13868;SDS011;7004;48.206;16.402;2023-05-21T09:16:49;9.00;;;7.80;;
13868;SDS011;7004;48.206;16.402;2023-05-21T09:19:18;7.90;;;7.20;;
13868;SDS011;7004;48.206;16.402;2023-05-21T09:21:46;8.60;;;7.80;;
13868;SDS011;7004;48.206;16.402;2023-05-21T09:24:15;10.37;;;7.63;;
13868;SDS011;7004;48.206;16.402;2023-05-21T09:26:42;9.30;;;7.37;;
13868;SDS011;7004;48.206;16.402;2023-05-21T09:29:08;8.57;;;7.67;;
13868;SDS011;7004;48.206;16.402;2023-05-21T09:31:34;8.57;;;7.67;;
13868;SDS011;7004;48.206;16.402;2023-05-21T09:34:00;8.13;;;7.30;;
13868;SDS011;7004;48.206;16.402;2023-05-21T09:36:27;7.87;;;7.07;;
13868;SDS011;7004;48.206;16.402;2023-05-21T09:38:58;8.93;;;7.13;;
13868;SDS011;7004;48.206;16.402;2023-05-21T09:41:31;8.87;;;7.23;;
13868;SDS011;7004;48.206;16.402;2023-05-21T09:44:00;8.83;;;7.00;;
13868;SDS011;7004;48.206;16.402;2023-05-21T09:46:27;8.97;;;7.40;;
13868;SDS011;7004;48.206;16.402;2023-05-21T09:49:04;8.30;;;7.50;;
13868;SDS011;7004;48.206;16.402;2023-05-21T09:51:30;8.93;;;7.70;;
13868;SDS011;7004;48.206;16.402;2023-05-21T09:53:56;8.43;;;7.53;;
13868;SDS011;7004;48.206;16.402;2023-05-21T09:56:23;8.10;;;7.27;;
13868;SDS011;7004;48.206;16.402;2023-05-21T09:58:53;9.33;;;7.43;;
13868;SDS011;7004;48.206;16.402;2023-05-21T10:01:26;7.27;;;6.57;;
13868;SDS011;7004;48.206;16.402;2023-05-21T10:03:55;8.30;;;7.47;;
13868;SDS011;7004;48.206;16.402;2023-05-21T10:06:30;9.10;;;7.93;;
13868;SDS011;7004;48.206;16.402;2023-05-21T10:09:01;8.57;;;7.43;;
13868;SDS011;7004;48.206;16.402;2023-05-21T10:11:31;8.37;;;7.57;;
13868;SDS011;7004;48.206;16.402;2023-05-21T10:14:08;8.10;;;7.30;;
13868;SDS011;7004;48.206;16.402;2023-05-21T10:16:41;8.50;;;7.60;;
13868;SDS011;7004;48.206;16.402;2023-05-21T10:19:08;9.60;;;7.27;;
13868;SDS011;7004;48.206;16.402;2023-05-21T10:21:35;8.23;;;7.43;;
13868;SDS011;7004;48.206;16.402;2023-05-21T10:24:04;9.97;;;7.30;;
13868;SDS011;7004;48.206;16.402;2023-05-21T10:26:33;8.33;;;7.17;;
13868;SDS011;7004;48.206;16.402;2023-05-21T10:29:01;9.30;;;7.30;;
13868;SDS011;7004;48.206;16.402;2023-05-21T10:31:27;11.80;;;7.87;;
13868;SDS011;7004;48.206;16.402;2023-05-21T10:33:54;8.70;;;7.33;;
13868;SDS011;7004;48.206;16.402;2023-05-21T10:36:20;9.17;;;7.10;;
13868;SDS011;7004;48.206;16.402;2023-05-21T10:38:48;9.13;;;7.60;;
13868;SDS011;7004;48.206;16.402;2023-05-21T10:41:14;8.57;;;7.20;;
13868;SDS011;7004;48.206;16.402;2023-05-21T10:43:47;8.03;;;7.23;;
13868;SDS011;7004;48.206;16.402;2023-05-21T10:49:34;8.80;;;7.00;;
13868;SDS011;7004;48.206;16.402;2023-05-21T11:01:47;8.07;;;7.27;;
13868;SDS011;7004;48.206;16.402;2023-05-21T11:04:21;7.93;;;7.13;;
13868;SDS011;7004;48.206;16.402;2023-05-21T11:06:51;7.80;;;7.00;;
13868;SDS011;7004;48.206;16.402;2023-05-21T11:09:17;8.00;;;7.20;;
13868;SDS011;7004;48.206;16.402;2023-05-21T11:11:51;8.30;;;7.00;;
13868;SDS011;7004;48.206;16.402;2023-05-21T11:14:38;7.60;;;6.67;;
13868;SDS011;7004;48.206;16.402;2023-05-21T11:17:10;7.90;;;7.10;;
13868;SDS011;7004;48.206;16.402;2023-05-21T11:19:44;7.70;;;6.50;;
13868;SDS011;7004;48.206;16.402;2023-05-21T11:22:24;7.40;;;6.70;;
13868;SDS011;7004;48.206;16.402;2023-05-21T11:24:51;7.50;;;6.80;;
13868;SDS011;7004;48.206;16.402;2023-05-21T11:27:38;7.33;;;6.63;;
13868;SDS011;7004;48.206;16.402;2023-05-21T11:30:06;8.33;;;7.07;;
13868;SDS011;7004;48.206;16.402;2023-05-21T11:32:38;7.00;;;6.30;;
13868;SDS011;7004;48.206;16.402;2023-05-21T11:35:26;7.73;;;6.87;;
13868;SDS011;7004;48.206;16.402;2023-05-21T11:37:52;7.20;;;6.50;;
13868;SDS011;7004;48.206;16.402;2023-05-21T11:40:19;7.77;;;6.97;;
13868;SDS011;7004;48.206;16.402;2023-05-21T11:42:53;7.63;;;6.87;;
13868;SDS011;7004;48.206;16.402;2023-05-21T11:45:22;8.00;;;7.20;;
13868;SDS011;7004;48.206;16.402;2023-05-21T11:47:58;8.33;;;7.53;;
13868;SDS011;7004;48.206;16.402;2023-05-21T11:50:25;7.57;;;6.87;;
13868;SDS011;7004;48.206;16.402;2023-05-21T11:52:54;8.10;;;6.67;;
13868;SDS011;7004;48.206;16.402;2023-05-21T11:55:22;7.00;;;6.30;;
13868;SDS011;7004;48.206;16.402;2023-05-21T11:57:51;8.47;;;6.70;;
13868;SDS011;7004;48.206;16.402;2023-05-21T12:00:19;7.97;;;7.13;;
13868;SDS011;7004;48.206;16.402;2023-05-21T12:02:46;7.67;;;6.60;;
13868;SDS011;7004;48.206;16.402;2023-05-21T12:05:16;6.90;;;6.30;;
13868;SDS011;7004;48.206;16.402;2023-05-21T12:07:45;8.90;;;7.03;;
13868;SDS011;7004;48.206;16.402;2023-05-21T12:10:15;9.10;;;7.70;;
13868;SDS011;7004;48.206;16.402;2023-05-21T12:12:45;7.57;;;6.80;;
13868;SDS011;7004;48.206;16.402;2023-05-21T12:15:11;7.10;;;6.40;;
13868;SDS011;7004;48.206;16.402;2023-05-21T12:17:37;7.53;;;6.80;;
13868;SDS011;7004;48.206;16.402;2023-05-21T12:20:03;7.87;;;7.07;;
13868;SDS011;7004;48.206;16.402;2023-05-21T12:22:32;8.00;;;6.97;;
13868;SDS011;7004;48.206;16.402;2023-05-21T12:24:59;7.33;;;6.63;;
13868;SDS011;7004;48.206;16.402;2023-05-21T12:27:25;9.97;;;7.23;;
13868;SDS011;7004;48.206;16.402;2023-05-21T12:29:52;7.17;;;6.47;;
13868;SDS011;7004;48.206;16.402;2023-05-21T12:32:19;7.03;;;6.27;;
13868;SDS011;7004;48.206;16.402;2023-05-21T12:34:47;7.13;;;6.47;;
13868;SDS011;7004;48.206;16.402;2023-05-21T12:37:25;7.63;;;6.93;;
13868;SDS011;7004;48.206;16.402;2023-05-21T12:39:57;8.07;;;7.27;;
13868;SDS011;7004;48.206;16.402;2023-05-21T12:42:26;7.53;;;6.80;;
13868;SDS011;7004;48.206;16.402;2023-05-21T12:44:59;7.67;;;6.97;;
13868;SDS011;7004;48.206;16.402;2023-05-21T12:47:33;6.90;;;6.30;;
13868;SDS011;7004;48.206;16.402;2023-05-21T12:50:00;7.90;;;6.93;;
13868;SDS011;7004;48.206;16.402;2023-05-21T12:52:30;7.47;;;6.77;;
13868;SDS011;7004;48.206;16.402;2023-05-21T12:55:01;8.30;;;6.80;;
13868;SDS011;7004;48.206;16.402;2023-05-21T12:57:34;7.80;;;6.80;;
13868;SDS011;7004;48.206;16.402;2023-05-21T13:00:03;10.07;;;6.70;;
13868;SDS011;7004;48.206;16.402;2023-05-21T13:02:31;8.03;;;6.50;;
13868;SDS011;7004;48.206;16.402;2023-05-21T13:05:05;7.70;;;6.30;;
13868;SDS011;7004;48.206;16.402;2023-05-21T13:07:34;7.07;;;6.37;;
13868;SDS011;7004;48.206;16.402;2023-05-21T13:10:02;8.10;;;6.80;;
13868;SDS011;7004;48.206;16.402;2023-05-21T13:12:30;7.13;;;6.43;;
13868;SDS011;7004;48.206;16.402;2023-05-21T13:14:58;7.43;;;6.73;;
13868;SDS011;7004;48.206;16.402;2023-05-21T13:17:26;6.70;;;6.00;;
13868;SDS011;7004;48.206;16.402;2023-05-21T13:22:37;8.20;;;6.87;;
13868;SDS011;7004;48.206;16.402;2023-05-21T13:25:16;7.03;;;6.43;;
13868;SDS011;7004;48.206;16.402;2023-05-21T13:27:49;6.33;;;5.73;;
13868;SDS011;7004;48.206;16.402;2023-05-21T13:30:17;7.63;;;6.40;;
13868;SDS011;7004;48.206;16.402;2023-05-21T13:32:44;6.80;;;6.20;;
13868;SDS011;7004;48.206;16.402;2023-05-21T13:35:10;6.17;;;5.67;;
13868;SDS011;7004;48.206;16.402;2023-05-21T13:37:37;6.37;;;5.77;;
13868;SDS011;7004;48.206;16.402;2023-05-21T13:40:05;6.40;;;5.80;;
13868;SDS011;7004;48.206;16.402;2023-05-21T13:42:41;7.20;;;6.40;;
13868;SDS011;7004;48.206;16.402;2023-05-21T13:45:09;6.63;;;6.03;;
13868;SDS011;7004;48.206;16.402;2023-05-21T13:47:38;8.53;;;6.47;;
13868;SDS011;7004;48.206;16.402;2023-05-21T13:50:05;6.97;;;6.27;;
13868;SDS011;7004;48.206;16.402;2023-05-21T13:52:33;7.90;;;6.80;;
13868;SDS011;7004;48.206;16.402;2023-05-21T13:54:59;7.30;;;6.60;;
13868;SDS011;7004;48.206;16.402;2023-05-21T13:57:25;9.43;;;6.20;;
13868;SDS011;7004;48.206;16.402;2023-05-21T13:59:55;7.13;;;6.17;;
13868;SDS011;7004;48.206;16.402;2023-05-21T14:02:22;7.73;;;6.53;;
13868;SDS011;7004;48.206;16.402;2023-05-21T14:04:48;6.70;;;6.10;;
13868;SDS011;7004;48.206;16.402;2023-05-21T14:07:14;7.23;;;5.90;;
13868;SDS011;7004;48.206;16.402;2023-05-21T14:09:41;5.93;;;5.43;;
13868;SDS011;7004;48.206;16.402;2023-05-21T14:12:07;7.37;;;5.93;;
13868;SDS011;7004;48.206;16.402;2023-05-21T14:14:34;6.93;;;6.07;;
13868;SDS011;7004;48.206;16.402;2023-05-21T14:17:00;7.93;;;6.80;;
13868;SDS011;7004;48.206;16.402;2023-05-21T14:19:26;6.97;;;6.27;;
13868;SDS011;7004;48.206;16.402;2023-05-21T14:21:52;6.80;;;6.10;;
13868;SDS011;7004;48.206;16.402;2023-05-21T14:24:18;7.10;;;6.13;;
13868;SDS011;7004;48.206;16.402;2023-05-21T14:26:45;6.50;;;5.90;;
13868;SDS011;7004;48.206;16.402;2023-05-21T14:29:11;6.97;;;6.27;;
13868;SDS011;7004;48.206;16.402;2023-05-21T14:31:37;7.07;;;6.37;;
13868;SDS011;7004;48.206;16.402;2023-05-21T14:34:03;7.73;;;6.30;;
13868;SDS011;7004;48.206;16.402;2023-05-21T14:36:32;6.30;;;5.70;;
13868;SDS011;7004;48.206;16.402;2023-05-21T14:38:58;6.37;;;5.77;;
13868;SDS011;7004;48.206;16.402;2023-05-21T14:41:25;6.73;;;6.07;;
13868;SDS011;7004;48.206;16.402;2023-05-21T14:43:52;6.73;;;6.03;;
13868;SDS011;7004;48.206;16.402;2023-05-21T14:46:18;9.57;;;5.80;;
13868;SDS011;7004;48.206;16.402;2023-05-21T14:48:45;7.00;;;6.10;;
13868;SDS011;7004;48.206;16.402;2023-05-21T14:51:11;7.87;;;5.47;;
13868;SDS011;7004;48.206;16.402;2023-05-21T14:53:38;6.60;;;5.90;;
13868;SDS011;7004;48.206;16.402;2023-05-21T14:56:05;9.50;;;6.00;;
13868;SDS011;7004;48.206;16.402;2023-05-21T14:58:31;7.13;;;6.03;;